Time;durP1;ratioP1;P1;durP2;ratioP2;P2;SDS_P1;SDS_P2;PMS_P1;PMS_P2;Temp;Humidity;BMP_temperature;BMP_pressure;BME280_temperature;BME280_humidity;BME280_pressure;Samples;Min_cycle;Max_cycle;Signal;HPM_P1;HPM_P2
2023/05/30 00:01:15;;;;;;;9.85;4.60;;;11.60;99.90;;;;;;5140414;27;20043;-72
2023/05/30 00:03:44;;;;;;;19.40;7.10;;;11.60;99.90;;;;;;5159311;27;20498;-73
2023/05/30 00:06:14;;;;;;;10.95;4.40;;;11.60;99.90;;;;;;5158557;27;20139;-74
2023/05/30 00:08:40;;;;;;;10.77;5.50;;;11.60;99.90;;;;;;5157337;27;20034;-74
2023/05/30 00:11:07;;;;;;;10.52;5.18;;;11.60;99.90;;;;;;5120797;27;20434;-74
2023/05/30 00:13:33;;;;;;;11.95;5.93;;;11.60;99.90;;;;;;5155883;27;20097;-74
2023/05/30 00:16:00;;;;;;;13.70;5.05;;;11.60;99.90;;;;;;5155768;27;20048;-74
2023/05/30 00:18:34;;;;;;;8.38;5.13;;;11.60;99.90;;;;;;5155627;27;20042;-74
2023/05/30 00:21:05;;;;;;;8.85;5.10;;;11.60;99.90;;;;;;5156147;27;20058;-74
2023/05/30 00:23:32;;;;;;;6.55;4.82;;;11.60;99.90;;;;;;5155594;27;20050;-74
2023/05/30 00:25:59;;;;;;;10.55;5.88;;;11.60;99.90;;;;;;5155957;27;20047;-74
2023/05/30 00:28:25;;;;;;;8.75;4.93;;;11.60;99.90;;;;;;5102974;27;20042;-74
2023/05/30 00:30:52;;;;;;;8.80;5.03;;;11.60;99.90;;;;;;5155309;27;20054;-74
2023/05/30 00:33:17;;;;;;;9.20;4.90;;;11.60;99.90;;;;;;5155497;27;20039;-74
2023/05/30 00:35:43;;;;;;;15.52;4.88;;;11.60;99.90;;;;;;5155188;27;20050;-73
2023/05/30 00:38:09;;;;;;;9.85;4.70;;;11.60;99.90;;;;;;5155280;27;20066;-74
2023/05/30 00:40:34;;;;;;;11.60;5.07;;;11.60;99.90;;;;;;5136779;27;20043;-74
2023/05/30 00:43:00;;;;;;;12.38;6.25;;;11.60;99.90;;;;;;5155129;27;20043;-74
2023/05/30 00:45:26;;;;;;;11.30;4.47;;;11.60;99.90;;;;;;5155142;27;20511;-75
2023/05/30 00:47:53;;;;;;;13.00;5.38;;;11.60;99.90;;;;;;5137375;27;20053;-74
2023/05/30 00:50:19;;;;;;;9.32;4.80;;;11.60;99.90;;;;;;5154680;27;20400;-74
2023/05/30 00:52:49;;;;;;;11.52;4.78;;;11.60;99.90;;;;;;5137014;27;20126;-74
2023/05/30 00:55:16;;;;;;;8.15;3.85;;;11.60;99.90;;;;;;5154958;27;20039;-73
2023/05/30 00:57:43;;;;;;;15.02;6.00;;;11.60;99.90;;;;;;5155021;27;20093;-74
2023/05/30 01:00:11;;;;;;;8.18;4.65;;;11.50;99.90;;;;;;5136627;27;20542;-74
2023/05/30 01:02:39;;;;;;;12.25;4.75;;;11.50;99.90;;;;;;5154909;27;20043;-73
2023/05/30 01:05:05;;;;;;;11.00;4.95;;;11.50;99.90;;;;;;5154889;27;20122;-72
2023/05/30 01:07:34;;;;;;;8.63;4.45;;;11.50;99.90;;;;;;5154658;27;20079;-74
2023/05/30 01:10:00;;;;;;;10.75;4.72;;;12.00;99.90;;;;;;5154784;27;20049;-74
2023/05/30 01:12:45;;;;;;;6.32;4.57;;;11.50;99.90;;;;;;5154547;27;20114;-74
2023/05/30 01:15:17;;;;;;;7.35;4.50;;;12.60;99.90;;;;;;5154284;27;20536;-74
2023/05/30 01:18:01;;;;;;;9.48;4.32;;;11.50;99.90;;;;;;5154847;27;20134;-74
2023/05/30 01:20:32;;;;;;;9.93;4.30;;;11.50;99.90;;;;;;5154628;27;20042;-74
2023/05/30 01:23:09;;;;;;;8.93;4.18;;;11.50;99.90;;;;;;5154484;27;20132;-74
2023/05/30 01:25:38;;;;;;;7.70;4.35;;;11.50;99.90;;;;;;5154516;27;20070;-74
2023/05/30 01:28:24;;;;;;;6.90;4.03;;;11.50;99.90;;;;;;5154311;27;20039;-75
2023/05/30 01:30:53;;;;;;;11.77;4.75;;;11.50;99.90;;;;;;5154519;27;20179;-74
2023/05/30 01:33:22;;;;;;;6.75;4.15;;;11.50;99.90;;;;;;5154330;27;20490;-73
2023/05/30 01:35:48;;;;;;;5.72;4.13;;;11.40;99.90;;;;;;5154367;27;20039;-73
2023/05/30 01:38:15;;;;;;;9.80;4.95;;;11.50;99.90;;;;;;5136501;27;20371;-73
2023/05/30 01:40:53;;;;;;;10.60;5.22;;;11.50;99.90;;;;;;5136209;27;20043;-74
2023/05/30 01:43:28;;;;;;;8.23;4.68;;;11.50;99.90;;;;;;5154080;27;20125;-73
2023/05/30 01:46:05;;;;;;;8.40;4.22;;;11.40;99.90;;;;;;5136678;27;20055;-73
2023/05/30 01:48:59;;;;;;;7.13;5.15;;;11.40;99.90;;;;;;5153643;27;20053;-75
2023/05/30 01:51:52;;;;;;;9.82;4.30;;;11.40;99.90;;;;;;5154361;27;20483;-73
2023/05/30 01:54:20;;;;;;;9.48;4.53;;;11.40;99.90;;;;;;5125254;27;20097;-74
2023/05/30 01:56:54;;;;;;;9.18;4.63;;;11.40;99.90;;;;;;5154087;27;20042;-74
2023/05/30 01:59:23;;;;;;;9.15;5.03;;;11.40;99.90;;;;;;5154094;27;20047;-74
2023/05/30 02:01:51;;;;;;;7.05;4.72;;;11.40;99.90;;;;;;5153764;27;20068;-73
2023/05/30 02:04:16;;;;;;;10.68;5.47;;;11.40;99.90;;;;;;5154027;27;20050;-73
2023/05/30 02:06:42;;;;;;;10.02;4.55;;;11.30;99.90;;;;;;5154011;27;20043;-74
2023/05/30 02:09:08;;;;;;;7.90;4.57;;;11.40;99.90;;;;;;5118444;27;20078;-74
2023/05/30 02:11:33;;;;;;;9.18;5.32;;;11.30;99.90;;;;;;5153917;27;20047;-73
2023/05/30 02:14:00;;;;;;;8.60;4.88;;;11.40;99.90;;;;;;5135645;27;20047;-74
2023/05/30 02:16:26;;;;;;;10.13;4.30;;;11.40;99.90;;;;;;5154356;27;20114;-74
2023/05/30 02:18:52;;;;;;;8.68;4.32;;;11.40;99.90;;;;;;5135631;27;20077;-74
2023/05/30 02:21:19;;;;;;;9.27;4.85;;;11.40;99.90;;;;;;5154469;27;20042;-74
2023/05/30 02:23:45;;;;;;;11.50;5.57;;;11.40;99.90;;;;;;5154390;27;20073;-74
2023/05/30 02:26:10;;;;;;;7.47;4.72;;;11.40;99.90;;;;;;5154256;27;20051;-74
2023/05/30 02:28:36;;;;;;;8.60;4.25;;;11.40;99.90;;;;;;5153705;27;20515;-73
2023/05/30 02:31:02;;;;;;;11.82;5.70;;;11.40;99.90;;;;;;5154403;27;20053;-74
2023/05/30 02:33:28;;;;;;;8.82;4.63;;;11.40;99.90;;;;;;5154314;27;20134;-74
2023/05/30 02:35:54;;;;;;;10.13;5.00;;;11.50;99.90;;;;;;5135620;27;20157;-73
2023/05/30 02:38:20;;;;;;;7.15;4.60;;;12.30;99.90;;;;;;5153867;27;20065;-74
2023/05/30 02:40:46;;;;;;;6.40;4.70;;;11.50;99.90;;;;;;5135252;27;20046;-73
2023/05/30 02:43:13;;;;;;;7.45;4.63;;;11.50;99.90;;;;;;5153580;27;20125;-73
2023/05/30 02:45:38;;;;;;;7.63;5.70;;;11.50;99.90;;;;;;5154201;27;20055;-74
2023/05/30 02:48:05;;;;;;;10.75;5.63;;;11.50;99.90;;;;;;5135152;27;20375;-73
2023/05/30 02:50:31;;;;;;;10.07;5.05;;;11.40;99.90;;;;;;5153995;27;20054;-73
2023/05/30 02:52:57;;;;;;;14.50;5.47;;;11.40;99.90;;;;;;5153474;27;20039;-73
2023/05/30 02:55:23;;;;;;;12.85;4.55;;;11.40;99.90;;;;;;5153520;27;20516;-74
2023/05/30 02:57:48;;;;;;;12.07;4.93;;;11.40;99.90;;;;;;5153348;27;20050;-74
2023/05/30 03:00:15;;;;;;;7.80;5.13;;;11.40;99.90;;;;;;5154531;27;20123;-74
2023/05/30 03:02:42;;;;;;;5.68;4.30;;;11.40;99.90;;;;;;5157186;27;20505;-74
2023/05/30 03:05:09;;;;;;;9.90;4.55;;;11.40;99.90;;;;;;5139148;27;20519;-73
2023/05/30 03:07:35;;;;;;;12.27;5.43;;;11.40;99.90;;;;;;5139192;27;20045;-74
2023/05/30 03:10:02;;;;;;;12.73;4.72;;;11.40;99.90;;;;;;5156896;27;20086;-73
2023/05/30 03:12:28;;;;;;;9.32;4.65;;;11.40;99.90;;;;;;5156909;27;20039;-73
2023/05/30 03:14:54;;;;;;;9.88;5.00;;;11.40;99.90;;;;;;5156999;27;20049;-73
2023/05/30 03:17:21;;;;;;;8.05;4.70;;;11.40;99.90;;;;;;5160616;27;20065;-73
2023/05/30 03:19:47;;;;;;;11.60;5.25;;;11.50;99.90;;;;;;5160627;27;20043;-73
2023/05/30 03:22:13;;;;;;;12.73;5.70;;;11.50;99.90;;;;;;5160250;27;20050;-72
2023/05/30 03:24:39;;;;;;;9.52;5.03;;;11.50;99.90;;;;;;5158243;27;20482;-74
2023/05/30 03:27:07;;;;;;;12.73;5.25;;;11.40;99.90;;;;;;5157700;27;20042;-74
2023/05/30 03:29:33;;;;;;;11.77;4.50;;;11.40;99.90;;;;;;5157300;27;20127;-73
2023/05/30 03:31:59;;;;;;;14.30;5.65;;;11.40;99.90;;;;;;5138273;27;20039;-74
2023/05/30 03:34:25;;;;;;;9.20;5.22;;;11.40;99.90;;;;;;5121105;27;20065;-73
2023/05/30 03:36:52;;;;;;;8.90;5.55;;;11.40;99.90;;;;;;5156866;27;20107;-73
2023/05/30 03:39:21;;;;;;;10.60;5.43;;;11.50;99.90;;;;;;5156478;27;20435;-73
2023/05/30 03:41:47;;;;;;;10.13;4.95;;;11.50;99.90;;;;;;5138351;27;20034;-73
2023/05/30 03:44:13;;;;;;;9.60;5.40;;;11.50;99.90;;;;;;5156295;27;20061;-73
2023/05/30 03:46:39;;;;;;;9.23;5.38;;;11.40;99.90;;;;;;5157334;27;20179;-73
2023/05/30 03:49:05;;;;;;;9.45;5.28;;;11.50;99.90;;;;;;5138600;27;20444;-73
2023/05/30 03:51:30;;;;;;;11.35;4.78;;;11.50;99.90;;;;;;5156230;27;20435;-74
2023/05/30 03:53:56;;;;;;;11.15;5.18;;;11.50;99.90;;;;;;5156374;27;20050;-73
2023/05/30 03:56:22;;;;;;;10.45;5.18;;;11.50;99.90;;;;;;5156429;27;20045;-74
2023/05/30 03:58:48;;;;;;;11.63;4.88;;;11.50;99.90;;;;;;5156119;27;20129;-73
2023/05/30 04:01:13;;;;;;;8.52;5.43;;;11.50;99.90;;;;;;5155707;27;20086;-74
2023/05/30 04:03:41;;;;;;;8.68;4.93;;;11.60;99.90;;;;;;5156042;27;20053;-73
2023/05/30 04:06:08;;;;;;;9.18;4.80;;;11.60;99.90;;;;;;5155951;27;20043;-73
2023/05/30 04:08:36;;;;;;;8.38;5.15;;;11.70;99.90;;;;;;5138253;27;20051;-74
2023/05/30 04:11:03;;;;;;;7.78;4.90;;;11.60;99.90;;;;;;5155278;27;20050;-74
2023/05/30 04:13:28;;;;;;;10.68;4.80;;;11.70;99.90;;;;;;5155815;27;20042;-73
2023/05/30 04:15:54;;;;;;;15.52;4.88;;;11.70;99.90;;;;;;5156192;27;20058;-74
2023/05/30 04:18:20;;;;;;;11.25;4.93;;;11.70;99.90;;;;;;5155749;27;20045;-74
2023/05/30 04:20:46;;;;;;;9.75;5.20;;;11.70;99.90;;;;;;5137514;27;20103;-73
2023/05/30 04:23:11;;;;;;;10.93;4.68;;;11.70;99.90;;;;;;5156194;27;20150;-73
2023/05/30 04:25:38;;;;;;;10.15;5.13;;;11.80;99.90;;;;;;5155586;27;20501;-74
2023/05/30 04:28:05;;;;;;;10.55;5.35;;;11.80;99.90;;;;;;5155776;27;20042;-74
2023/05/30 04:30:33;;;;;;;8.43;4.20;;;11.80;99.90;;;;;;5137270;27;20405;-73
2023/05/30 04:32:59;;;;;;;11.32;5.30;;;11.90;99.90;;;;;;5155244;27;20039;-73
2023/05/30 04:35:25;;;;;;;8.57;4.93;;;11.90;99.90;;;;;;5155390;27;20475;-73
2023/05/30 04:37:53;;;;;;;9.57;4.20;;;11.90;99.90;;;;;;5155256;27;20049;-73
2023/05/30 04:40:19;;;;;;;9.18;5.32;;;12.00;99.90;;;;;;5155316;27;20047;-73
2023/05/30 04:42:50;;;;;;;16.17;5.57;;;12.00;99.90;;;;;;5154922;27;20095;-73
2023/05/30 04:45:16;;;;;;;8.68;5.05;;;12.00;99.90;;;;;;5155354;27;20118;-74
2023/05/30 04:47:44;;;;;;;12.18;5.10;;;12.10;99.90;;;;;;5155081;27;20096;-73
2023/05/30 04:50:10;;;;;;;9.45;5.63;;;12.10;99.90;;;;;;5155041;27;20047;-73
2023/05/30 04:52:36;;;;;;;8.50;4.60;;;12.00;99.90;;;;;;5154944;27;20057;-74
2023/05/30 04:55:02;;;;;;;10.25;4.65;;;12.10;99.90;;;;;;5155351;27;20468;-73
2023/05/30 04:57:27;;;;;;;12.85;5.70;;;12.10;99.90;;;;;;5154902;27;20068;-73
2023/05/30 04:59:53;;;;;;;10.35;4.82;;;12.10;99.90;;;;;;5136572;27;20480;-73
2023/05/30 05:02:19;;;;;;;9.75;5.03;;;12.10;99.90;;;;;;5136561;27;20416;-73
2023/05/30 05:04:45;;;;;;;19.05;5.22;;;12.00;99.90;;;;;;5136851;27;20378;-73
2023/05/30 05:07:10;;;;;;;9.57;4.80;;;12.10;99.90;;;;;;5155176;27;20516;-73
2023/05/30 05:09:36;;;;;;;12.60;5.60;;;12.10;99.90;;;;;;5119047;27;20061;-73
2023/05/30 05:12:03;;;;;;;12.00;4.93;;;12.10;99.90;;;;;;5137006;27;20043;-73
2023/05/30 05:14:28;;;;;;;11.98;5.25;;;12.00;99.90;;;;;;5155106;27;20051;-73
2023/05/30 05:16:54;;;;;;;11.35;5.15;;;12.10;99.90;;;;;;5154925;27;20110;-73
2023/05/30 05:19:20;;;;;;;13.30;4.97;;;12.10;99.90;;;;;;5154552;27;20043;-73
2023/05/30 05:21:46;;;;;;;15.93;5.47;;;12.10;99.90;;;;;;5154325;27;20038;-73
2023/05/30 05:24:11;;;;;;;10.63;5.35;;;12.00;99.90;;;;;;5153613;27;20091;-75
2023/05/30 05:26:37;;;;;;;13.13;5.75;;;12.00;99.90;;;;;;5154682;27;20065;-75
2023/05/30 05:29:03;;;;;;;9.07;4.60;;;12.00;99.90;;;;;;5154235;27;20042;-73
2023/05/30 05:31:29;;;;;;;10.48;4.78;;;12.00;99.90;;;;;;5153806;27;20123;-74
2023/05/30 05:33:55;;;;;;;11.05;4.60;;;12.10;99.90;;;;;;5153817;27;20463;-72
2023/05/30 05:36:21;;;;;;;14.57;4.80;;;12.10;99.90;;;;;;5136046;27;20091;-72
2023/05/30 05:38:47;;;;;;;6.32;4.30;;;12.10;99.90;;;;;;5136292;27;20107;-72
2023/05/30 05:41:12;;;;;;;11.70;5.00;;;12.20;99.90;;;;;;5154325;27;20038;-72
2023/05/30 05:43:39;;;;;;;10.95;4.50;;;12.20;99.90;;;;;;5153708;27;20058;-72
2023/05/30 05:46:04;;;;;;;7.65;4.63;;;12.20;99.90;;;;;;5119205;27;20055;-72
2023/05/30 05:48:30;;;;;;;12.95;4.82;;;12.20;99.90;;;;;;5154272;27;20117;-72
2023/05/30 05:50:56;;;;;;;9.23;4.43;;;12.10;99.90;;;;;;5154230;27;20455;-72
2023/05/30 05:53:21;;;;;;;7.97;4.50;;;12.00;99.90;;;;;;5135107;27;20050;-72
2023/05/30 05:55:48;;;;;;;5.13;3.78;;;12.10;99.90;;;;;;5135565;27;20035;-72
2023/05/30 05:58:13;;;;;;;6.80;3.67;;;12.00;99.90;;;;;;5154045;27;20057;-72
2023/05/30 06:00:39;;;;;;;10.90;4.32;;;12.10;99.90;;;;;;5153768;27;20042;-72
2023/05/30 06:03:05;;;;;;;8.88;3.88;;;12.10;99.90;;;;;;5153595;27;20170;-72
2023/05/30 06:05:31;;;;;;;7.32;4.00;;;12.10;99.90;;;;;;5153560;27;20043;-72
2023/05/30 06:07:58;;;;;;;6.13;3.80;;;12.20;99.90;;;;;;5153905;27;20532;-72
2023/05/30 06:10:27;;;;;;;5.32;3.78;;;12.30;99.90;;;;;;5135623;27;20098;-71
2023/05/30 06:12:53;;;;;;;7.82;4.55;;;12.30;99.90;;;;;;5153759;27;20047;-72
2023/05/30 06:15:19;;;;;;;7.32;4.63;;;12.30;99.90;;;;;;5153779;27;20046;-71
2023/05/30 06:17:45;;;;;;;6.65;3.60;;;12.20;99.90;;;;;;5153762;27;20099;-72
2023/05/30 06:20:11;;;;;;;6.30;3.90;;;12.20;99.90;;;;;;5153598;27;20043;-71
2023/05/30 06:22:37;;;;;;;4.53;3.53;;;12.20;99.90;;;;;;5153523;27;20041;-72
2023/05/30 06:25:04;;;;;;;6.53;3.00;;;12.20;99.90;;;;;;5153040;27;20039;-72
2023/05/30 06:27:30;;;;;;;8.65;3.25;;;12.20;99.90;;;;;;5153813;27;20047;-72
2023/05/30 06:29:56;;;;;;;11.18;4.25;;;12.20;99.90;;;;;;5135228;27;20047;-71
2023/05/30 06:32:21;;;;;;;6.32;3.70;;;12.30;99.90;;;;;;5155053;27;20130;-72
2023/05/30 06:34:47;;;;;;;8.77;3.90;;;12.20;99.90;;;;;;5138995;27;20372;-72
2023/05/30 06:37:14;;;;;;;8.18;4.00;;;12.10;99.90;;;;;;5158798;27;20039;-71
2023/05/30 06:39:40;;;;;;;5.32;3.45;;;12.20;99.90;;;;;;5157792;27;20129;-73
2023/05/30 06:42:07;;;;;;;8.85;3.70;;;12.20;99.90;;;;;;5139095;27;20134;-72
2023/05/30 06:44:33;;;;;;;8.93;3.45;;;12.20;99.90;;;;;;5139005;27;20047;-73
2023/05/30 06:46:59;;;;;;;6.25;2.80;;;12.30;99.90;;;;;;5157425;27;20471;-72
2023/05/30 06:49:24;;;;;;;8.52;4.03;;;12.30;99.90;;;;;;5157701;27;20051;-72
2023/05/30 06:51:50;;;;;;;7.38;3.58;;;12.30;99.90;;;;;;5157857;27;20520;-72
2023/05/30 06:54:16;;;;;;;5.95;4.20;;;12.30;99.90;;;;;;5157327;27;20474;-72
2023/05/30 06:56:42;;;;;;;7.15;3.33;;;12.20;99.90;;;;;;5156897;27;20055;-72
2023/05/30 06:59:07;;;;;;;4.60;3.30;;;12.20;99.90;;;;;;5157286;27;20043;-72
2023/05/30 07:01:33;;;;;;;5.68;2.63;;;12.30;99.90;;;;;;5157495;27;20498;-72
2023/05/30 07:03:59;;;;;;;10.88;3.40;;;12.30;99.90;;;;;;5138611;27;20054;-73
2023/05/30 07:06:25;;;;;;;6.30;3.53;;;12.30;99.90;;;;;;5157096;27;20066;-73
2023/05/30 07:08:50;;;;;;;6.90;3.42;;;12.40;99.90;;;;;;5139150;27;20035;-73
2023/05/30 07:11:16;;;;;;;7.07;3.20;;;12.40;99.90;;;;;;5157411;27;20519;-71
2023/05/30 07:13:42;;;;;;;7.50;3.33;;;12.50;99.90;;;;;;5157532;27;20038;-72
2023/05/30 07:16:08;;;;;;;3.85;2.72;;;12.50;99.90;;;;;;5138455;27;20423;-72
2023/05/30 07:18:34;;;;;;;5.05;2.85;;;12.60;99.90;;;;;;5157072;27;20047;-72
2023/05/30 07:20:59;;;;;;;6.47;3.05;;;12.60;99.90;;;;;;5157267;27;20043;-72
2023/05/30 07:23:25;;;;;;;4.68;2.72;;;12.60;99.90;;;;;;5139173;27;20471;-72
2023/05/30 07:25:51;;;;;;;3.28;2.47;;;12.70;99.90;;;;;;5121129;27;20098;-73
2023/05/30 07:28:16;;;;;;;4.28;2.92;;;12.70;99.90;;;;;;5156624;27;20047;-72
2023/05/30 07:30:42;;;;;;;7.00;2.83;;;12.70;99.90;;;;;;5156638;27;20050;-72
2023/05/30 07:33:08;;;;;;;5.20;3.88;;;12.70;99.90;;;;;;5156156;27;20039;-72
2023/05/30 07:35:33;;;;;;;4.80;2.30;;;12.70;99.90;;;;;;5156987;27;20089;-72
2023/05/30 07:37:59;;;;;;;7.28;2.47;;;12.80;99.90;;;;;;5138054;27;20129;-72
2023/05/30 07:40:25;;;;;;;3.38;2.35;;;12.80;99.90;;;;;;5156426;27;20046;-72
2023/05/30 07:42:51;;;;;;;4.63;1.92;;;13.00;99.90;;;;;;5156087;27;20054;-72
2023/05/30 07:45:18;;;;;;;3.55;2.13;;;13.10;99.90;;;;;;5137702;27;20046;-72
2023/05/30 07:47:43;;;;;;;5.45;2.38;;;13.10;99.90;;;;;;5156355;27;20058;-72
2023/05/30 07:50:10;;;;;;;5.43;2.75;;;13.00;99.90;;;;;;5156973;27;20046;-72
2023/05/30 07:52:36;;;;;;;3.65;2.00;;;13.00;99.90;;;;;;5137855;27;20042;-72
2023/05/30 07:55:02;;;;;;;2.45;1.73;;;13.00;99.90;;;;;;5138182;27;20046;-73
2023/05/30 07:57:28;;;;;;;2.58;2.20;;;13.00;99.90;;;;;;5137610;27;20046;-73
2023/05/30 07:59:53;;;;;;;4.38;2.13;;;13.00;99.90;;;;;;5137661;27;20042;-72
2023/05/30 08:02:24;;;;;;;2.83;2.13;;;13.10;99.90;;;;;;5156036;27;20087;-72
2023/05/30 08:04:49;;;;;;;5.05;1.90;;;13.20;99.90;;;;;;5156280;27;20050;-71
2023/05/30 08:07:15;;;;;;;5.70;2.40;;;13.30;99.90;;;;;;5156213;27;20054;-71
2023/05/30 08:09:41;;;;;;;3.40;2.00;;;13.40;99.90;;;;;;5137800;27;20043;-72
2023/05/30 08:12:07;;;;;;;3.72;2.25;;;13.30;99.90;;;;;;5155754;27;20045;-71
2023/05/30 08:14:33;;;;;;;3.60;2.70;;;13.30;99.90;;;;;;5155722;27;20046;-71
2023/05/30 08:16:59;;;;;;;5.72;2.58;;;13.30;99.90;;;;;;5155797;27;20381;-71
2023/05/30 08:19:25;;;;;;;2.95;2.00;;;13.10;99.90;;;;;;5155910;27;20084;-71
2023/05/30 08:21:51;;;;;;;2.92;2.13;;;13.10;99.90;;;;;;5155736;27;20489;-71
2023/05/30 08:24:17;;;;;;;3.13;1.98;;;13.10;99.90;;;;;;5155593;27;20053;-71
2023/05/30 08:26:43;;;;;;;4.25;2.05;;;13.00;99.90;;;;;;5137821;27;20425;-72
2023/05/30 08:29:09;;;;;;;5.25;2.00;;;13.00;99.90;;;;;;5137492;27;20047;-72
2023/05/30 08:31:34;;;;;;;2.78;2.00;;;13.00;99.90;;;;;;5155974;27;20039;-71
2023/05/30 08:34:04;;;;;;;3.72;1.50;;;13.00;99.90;;;;;;5119965;27;20513;-71
2023/05/30 08:36:32;;;;;;;5.82;2.80;;;13.10;99.90;;;;;;5137314;27;20050;-72
2023/05/30 08:38:58;;;;;;;3.53;2.13;;;13.20;99.90;;;;;;5155257;27;20103;-71
2023/05/30 08:41:23;;;;;;;4.97;2.08;;;13.50;99.90;;;;;;5155805;27;20051;-71
2023/05/30 08:43:50;;;;;;;4.65;2.40;;;13.60;99.90;;;;;;5155304;27;20054;-73
2023/05/30 08:46:17;;;;;;;4.68;2.53;;;13.50;99.90;;;;;;5155724;27;20054;-72
2023/05/30 08:48:44;;;;;;;3.85;2.08;;;13.40;99.90;;;;;;5155239;27;20051;-72
2023/05/30 08:51:15;;;;;;;4.22;2.30;;;13.40;99.90;;;;;;5155493;27;20050;-73
2023/05/30 08:53:51;;;;;;;3.28;2.40;;;13.20;99.90;;;;;;5154977;27;20174;-73
2023/05/30 08:56:28;;;;;;;2.42;2.03;;;13.20;99.90;;;;;;5155088;27;20485;-72
2023/05/30 08:58:56;;;;;;;2.90;1.98;;;13.10;99.90;;;;;;5155341;27;20065;-72
2023/05/30 09:01:23;;;;;;;5.05;2.78;;;13.20;99.90;;;;;;5154780;27;20050;-72
2023/05/30 09:03:50;;;;;;;2.35;1.75;;;13.40;99.90;;;;;;5136369;27;20053;-72
2023/05/30 09:06:17;;;;;;;2.53;1.90;;;13.60;99.90;;;;;;5155199;27;20043;-72
2023/05/30 09:08:45;;;;;;;1.60;1.50;;;13.70;99.90;;;;;;5154683;27;20051;-72
2023/05/30 09:11:13;;;;;;;5.30;2.05;;;13.90;99.90;;;;;;5155275;27;20045;-72
2023/05/30 09:13:41;;;;;;;3.47;1.65;;;13.80;99.90;;;;;;5136443;27;20481;-72
2023/05/30 09:16:08;;;;;;;3.22;1.77;;;13.70;99.90;;;;;;5154695;27;20092;-72
2023/05/30 09:18:33;;;;;;;4.03;1.95;;;13.60;99.90;;;;;;5154496;27;20067;-71
2023/05/30 09:21:00;;;;;;;2.55;1.90;;;13.50;99.90;;;;;;5154439;27;20057;-71
2023/05/30 09:23:26;;;;;;;3.83;2.22;;;13.50;99.90;;;;;;5136484;27;20042;-71
2023/05/30 09:25:52;;;;;;;3.20;1.88;;;13.40;99.90;;;;;;5136305;27;20050;-71
2023/05/30 09:28:28;;;;;;;2.00;1.67;;;13.40;99.90;;;;;;5154762;27;20118;-71
2023/05/30 09:31:02;;;;;;;2.45;1.55;;;13.60;99.90;;;;;;5136372;27;20047;-70
2023/05/30 09:33:45;;;;;;;2.15;1.60;;;13.80;99.90;;;;;;5154531;27;20043;-71
2023/05/30 09:36:28;;;;;;;1.95;1.20;;;14.00;99.90;;;;;;5153728;27;20467;-72
2023/05/30 09:38:59;;;;;;;1.35;1.25;;;14.10;99.90;;;;;;5135931;27;20467;-70
2023/05/30 09:41:26;;;;;;;1.98;1.77;;;14.30;99.90;;;;;;5154697;27;20038;-71
2023/05/30 09:43:55;;;;;;;2.22;1.55;;;14.30;99.90;;;;;;5155271;27;20094;-70
2023/05/30 09:46:30;;;;;;;1.50;1.05;;;14.20;99.90;;;;;;5155624;27;20101;-71
2023/05/30 09:48:57;;;;;;;3.88;1.60;;;14.30;99.90;;;;;;5155351;27;20043;-71
2023/05/30 09:51:25;;;;;;;2.17;1.23;;;14.20;99.90;;;;;;5154517;27;20047;-71
2023/05/30 09:54:01;;;;;;;1.48;1.38;;;14.20;99.90;;;;;;5136060;27;20370;-71
2023/05/30 09:56:38;;;;;;;1.75;1.40;;;14.20;99.90;;;;;;5136361;27;20097;-70
2023/05/30 09:59:13;;;;;;;1.63;1.33;;;14.20;99.90;;;;;;5154094;27;20046;-72
2023/05/30 10:01:44;;;;;;;2.30;1.23;;;14.20;99.90;;;;;;5135403;27;20057;-70
2023/05/30 10:04:14;;;;;;;2.00;1.20;;;14.10;99.90;;;;;;5154475;27;20054;-69
2023/05/30 10:06:43;;;;;;;4.72;1.50;;;14.10;99.90;;;;;;5154286;27;20051;-70
2023/05/30 10:09:09;;;;;;;2.08;1.10;;;14.20;99.90;;;;;;5155213;27;20511;-71
2023/05/30 10:11:43;;;;;;;2.67;1.20;;;14.10;99.90;;;;;;5158142;27;20058;-71
2023/05/30 10:14:10;;;;;;;1.70;0.98;;;14.10;99.90;;;;;;5140025;27;20054;-71
2023/05/30 10:16:59;;;;;;;3.35;1.38;;;14.10;99.90;;;;;;5158125;27;20460;-70
2023/05/30 10:19:28;;;;;;;3.20;1.60;;;14.00;99.90;;;;;;5138568;27;20059;-71
2023/05/30 10:21:55;;;;;;;2.33;1.35;;;14.10;99.90;;;;;;5139559;27;20091;-71
2023/05/30 10:24:21;;;;;;;2.67;1.42;;;14.10;99.90;;;;;;5157847;27;20043;-71
2023/05/30 10:26:53;;;;;;;3.20;1.08;;;14.20;99.90;;;;;;5139785;27;20387;-71
2023/05/30 10:29:23;;;;;;;1.73;1.30;;;14.10;99.90;;;;;;5157912;27;20035;-71
2023/05/30 10:31:52;;;;;;;5.43;1.55;;;14.00;99.90;;;;;;5157844;27;20421;-72
2023/05/30 10:34:27;;;;;;;1.85;1.75;;;13.90;99.90;;;;;;5157801;27;20133;-72
2023/05/30 10:36:53;;;;;;;1.80;1.17;;;14.00;99.90;;;;;;5157778;27;20046;-72
2023/05/30 10:39:54;;;;;;;1.60;1.45;;;14.00;99.90;;;;;;5157609;27;20470;-72
2023/05/30 10:42:31;;;;;;;3.10;1.30;;;14.00;99.90;;;;;;5157592;27;20047;-71
2023/05/30 10:45:17;;;;;;;2.15;1.17;;;13.90;99.90;;;;;;5157708;27;20054;-71
2023/05/30 10:47:51;;;;;;;1.20;1.08;;;14.00;99.90;;;;;;5139522;27;20051;-71
2023/05/30 10:50:26;;;;;;;2.55;1.25;;;14.00;99.90;;;;;;5157734;27;20099;-71
2023/05/30 10:52:55;;;;;;;1.60;1.20;;;14.10;99.90;;;;;;5157780;27;20039;-72
2023/05/30 10:55:21;;;;;;;1.15;1.05;;;14.10;99.90;;;;;;5157473;27;20042;-72
2023/05/30 10:57:47;;;;;;;1.40;1.17;;;14.30;99.90;;;;;;5138674;27;20053;-72
2023/05/30 11:00:27;;;;;;;1.42;1.30;;;14.40;99.90;;;;;;5138772;27;20038;-72
2023/05/30 11:02:54;;;;;;;1.73;1.27;;;14.50;99.90;;;;;;5157300;27;20039;-72
2023/05/30 11:05:26;;;;;;;1.35;1.25;;;14.70;99.90;;;;;;5157156;27;20054;-72
2023/05/30 11:07:51;;;;;;;1.52;1.27;;;14.60;99.90;;;;;;5157510;27;20045;-72
2023/05/30 11:10:25;;;;;;;2.05;1.35;;;14.60;99.90;;;;;;5157597;27;20046;-71
2023/05/30 11:12:52;;;;;;;2.88;1.38;;;14.60;99.90;;;;;;5156848;27;20129;-72
2023/05/30 11:15:32;;;;;;;1.50;1.23;;;14.70;99.90;;;;;;5138889;27;20139;-71
2023/05/30 11:17:58;;;;;;;2.80;1.00;;;14.50;99.90;;;;;;5156912;27;20089;-71
2023/05/30 11:20:23;;;;;;;2.33;1.00;;;14.50;99.90;;;;;;5155770;27;20046;-70
2023/05/30 11:23:01;;;;;;;2.70;1.50;;;14.40;99.90;;;;;;5138340;27;20048;-71
2023/05/30 11:25:30;;;;;;;2.20;1.27;;;14.40;99.90;;;;;;5156803;27;20047;-71
2023/05/30 11:28:04;;;;;;;1.55;1.27;;;14.30;99.90;;;;;;5156653;27;20039;-71
2023/05/30 11:30:37;;;;;;;2.80;1.20;;;14.30;99.90;;;;;;5138338;27;20099;-71
2023/05/30 11:33:04;;;;;;;1.52;1.00;;;14.40;99.90;;;;;;5156552;27;20082;-71
2023/05/30 11:35:31;;;;;;;2.75;1.10;;;14.50;99.90;;;;;;5156583;27;20046;-71
2023/05/30 11:37:57;;;;;;;2.20;1.40;;;14.70;99.90;;;;;;5156651;27;20121;-71
2023/05/30 11:40:24;;;;;;;1.20;1.10;;;14.80;99.90;;;;;;5157028;27;20049;-71
2023/05/30 11:42:54;;;;;;;1.08;1.08;;;15.00;99.90;;;;;;5156060;27;20058;-71
2023/05/30 11:45:28;;;;;;;1.25;1.15;;;15.20;99.90;;;;;;5156388;27;20065;-71
2023/05/30 11:48:05;;;;;;;1.67;1.00;;;15.50;99.90;;;;;;5155991;27;20600;-71
2023/05/30 11:50:40;;;;;;;0.80;0.80;;;15.60;99.90;;;;;;5156399;27;20045;-72
2023/05/30 11:53:24;;;;;;;1.30;1.20;;;15.60;99.90;;;;;;5156666;27;20042;-72
2023/05/30 11:55:50;;;;;;;0.95;0.95;;;15.40;99.90;;;;;;5156121;27;20046;-71
2023/05/30 11:58:17;;;;;;;1.58;1.10;;;15.30;99.90;;;;;;5156424;27;20039;-71
2023/05/30 12:00:43;;;;;;;1.45;1.35;;;15.30;99.90;;;;;;5156165;27;20040;-71
2023/05/30 12:03:16;;;;;;;1.15;1.13;;;15.10;99.90;;;;;;5156124;27;20097;-70
2023/05/30 12:05:43;;;;;;;1.65;1.45;;;15.10;99.90;;;;;;5156630;27;20078;-71
2023/05/30 12:08:08;;;;;;;1.40;1.20;;;15.10;99.90;;;;;;5137765;27;20490;-71
2023/05/30 12:10:34;;;;;;;2.10;1.40;;;15.30;99.90;;;;;;5137522;27;20051;-71
2023/05/30 12:13:01;;;;;;;1.92;1.02;;;15.30;99.90;;;;;;5155582;27;20134;-71
2023/05/30 12:15:26;;;;;;;2.22;1.50;;;15.20;99.90;;;;;;5155593;27;20050;-70
2023/05/30 12:17:52;;;;;;;1.50;1.08;;;15.10;99.90;;;;;;5156104;27;20043;-70
2023/05/30 12:20:20;;;;;;;1.30;1.20;;;15.20;99.90;;;;;;5155902;27;20078;-70
2023/05/30 12:22:47;;;;;;;1.15;1.13;;;15.20;99.90;;;;;;5155184;27;20460;-70
2023/05/30 12:25:13;;;;;;;1.30;1.17;;;15.10;99.90;;;;;;5155368;27;20046;-71
2023/05/30 12:27:44;;;;;;;1.70;1.40;;;14.90;99.90;;;;;;5155256;27;20091;-71
2023/05/30 12:30:18;;;;;;;1.30;1.20;;;14.80;99.90;;;;;;5120207;27;20075;-71
2023/05/30 12:32:45;;;;;;;4.43;1.45;;;14.90;99.90;;;;;;5154770;27;20130;-70
2023/05/30 12:35:12;;;;;;;1.40;1.30;;;14.80;99.90;;;;;;5155186;27;20050;-71
2023/05/30 12:37:38;;;;;;;1.30;1.05;;;14.90;99.90;;;;;;5155139;27;20050;-71
2023/05/30 12:40:05;;;;;;;2.35;1.58;;;14.90;99.90;;;;;;5155582;27;20046;-71
2023/05/30 12:42:32;;;;;;;1.30;1.20;;;15.00;99.90;;;;;;5154728;27;20050;-71
2023/05/30 12:45:00;;;;;;;1.33;1.23;;;15.10;99.90;;;;;;5155473;27;20046;-71
2023/05/30 12:47:27;;;;;;;2.40;1.95;;;15.20;99.90;;;;;;5154899;27;20049;-72
2023/05/30 12:49:54;;;;;;;1.75;1.20;;;15.10;99.90;;;;;;5136651;27;20039;-71